sensor_id;sensor_type;location;lat;lon;timestamp;pressure;altitude;pressure_sealevel;temperature;humidity
25430;BME280;13360;48.152;-1.788;2023-04-02T00:07:55;102890.38;;;12.56;100.00
25430;BME280;13360;48.152;-1.788;2023-04-02T00:10:27;102891.53;;;12.60;100.00
25430;BME280;13360;48.152;-1.788;2023-04-02T00:13:16;102890.22;;;12.46;100.00
25430;BME280;13360;48.152;-1.788;2023-04-02T00:15:46;102898.03;;;12.49;100.00
25430;BME280;13360;48.152;-1.788;2023-04-02T00:18:18;102920.28;;;12.54;100.00
25430;BME280;13360;48.152;-1.788;2023-04-02T00:20:49;102918.88;;;12.51;100.00
25430;BME280;13360;48.152;-1.788;2023-04-02T00:23:16;102931.38;;;12.54;100.00
25430;BME280;13360;48.152;-1.788;2023-04-02T00:25:43;102943.56;;;12.53;100.00
25430;BME280;13360;48.152;-1.788;2023-04-02T00:28:14;102946.84;;;12.50;100.00
25430;BME280;13360;48.152;-1.788;2023-04-02T00:33:17;102983.94;;;12.49;100.00
25430;BME280;13360;48.152;-1.788;2023-04-02T00:35:43;102982.63;;;12.51;100.00
25430;BME280;13360;48.152;-1.788;2023-04-02T00:38:30;102975.06;;;12.47;100.00
25430;BME280;13360;48.152;-1.788;2023-04-02T00:40:59;102978.66;;;12.47;100.00
25430;BME280;13360;48.152;-1.788;2023-04-02T00:43:28;102971.44;;;12.46;100.00
25430;BME280;13360;48.152;-1.788;2023-04-02T00:45:58;102962.28;;;12.46;100.00
25430;BME280;13360;48.152;-1.788;2023-04-02T00:51:00;102987.50;;;12.44;100.00
25430;BME280;13360;48.152;-1.788;2023-04-02T00:53:32;102999.53;;;12.50;100.00
25430;BME280;13360;48.152;-1.788;2023-04-02T00:55:59;103003.72;;;12.52;100.00
25430;BME280;13360;48.152;-1.788;2023-04-02T00:58:33;102993.97;;;12.50;100.00
25430;BME280;13360;48.152;-1.788;2023-04-02T01:01:00;103002.19;;;12.45;100.00
25430;BME280;13360;48.152;-1.788;2023-04-02T01:03:32;103001.34;;;12.44;100.00
25430;BME280;13360;48.152;-1.788;2023-04-02T01:06:20;103011.59;;;12.44;100.00
25430;BME280;13360;48.152;-1.788;2023-04-02T01:15:05;103034.63;;;12.44;100.00
25430;BME280;13360;48.152;-1.788;2023-04-02T01:26:07;103075.88;;;12.41;100.00
25430;BME280;13360;48.152;-1.788;2023-04-02T01:31:19;103097.53;;;12.44;100.00
25430;BME280;13360;48.152;-1.788;2023-04-02T01:33:46;103114.50;;;12.47;100.00
25430;BME280;13360;48.152;-1.788;2023-04-02T01:41:33;103124.84;;;12.52;100.00
25430;BME280;13360;48.152;-1.788;2023-04-02T01:44:07;103127.03;;;12.50;100.00
25430;BME280;13360;48.152;-1.788;2023-04-02T01:46:38;103134.84;;;12.53;100.00
25430;BME280;13360;48.152;-1.788;2023-04-02T01:49:14;103130.66;;;12.50;100.00
25430;BME280;13360;48.152;-1.788;2023-04-02T01:51:46;103144.72;;;12.49;100.00
25430;BME280;13360;48.152;-1.788;2023-04-02T01:54:15;103144.91;;;12.42;100.00
25430;BME280;13360;48.152;-1.788;2023-04-02T01:56:42;103148.59;;;12.48;100.00
25430;BME280;13360;48.152;-1.788;2023-04-02T01:59:09;103154.16;;;12.48;100.00
25430;BME280;13360;48.152;-1.788;2023-04-02T02:01:43;103145.25;;;12.46;100.00
25430;BME280;13360;48.152;-1.788;2023-04-02T02:04:13;103155.25;;;12.47;100.00
25430;BME280;13360;48.152;-1.788;2023-04-02T02:06:41;103146.00;;;12.41;100.00
25430;BME280;13360;48.152;-1.788;2023-04-02T02:09:11;103169.84;;;12.42;100.00
25430;BME280;13360;48.152;-1.788;2023-04-02T02:11:39;103161.47;;;12.37;100.00
25430;BME280;13360;48.152;-1.788;2023-04-02T02:14:11;103159.78;;;12.36;100.00
25430;BME280;13360;48.152;-1.788;2023-04-02T02:16:39;103169.53;;;12.39;100.00
25430;BME280;13360;48.152;-1.788;2023-04-02T02:19:19;103175.06;;;12.39;100.00
25430;BME280;13360;48.152;-1.788;2023-04-02T02:21:50;103179.00;;;12.43;100.00
25430;BME280;13360;48.152;-1.788;2023-04-02T02:24:27;103190.69;;;12.45;100.00
25430;BME280;13360;48.152;-1.788;2023-04-02T02:29:37;103183.22;;;12.45;100.00
25430;BME280;13360;48.152;-1.788;2023-04-02T02:32:06;103183.47;;;12.44;100.00
25430;BME280;13360;48.152;-1.788;2023-04-02T02:34:42;103186.22;;;12.44;100.00
25430;BME280;13360;48.152;-1.788;2023-04-02T02:37:28;103184.56;;;12.43;100.00
25430;BME280;13360;48.152;-1.788;2023-04-02T02:39:58;103221.00;;;12.35;100.00
25430;BME280;13360;48.152;-1.788;2023-04-02T02:42:35;103221.09;;;12.40;100.00
25430;BME280;13360;48.152;-1.788;2023-04-02T02:45:04;103229.41;;;12.40;100.00
25430;BME280;13360;48.152;-1.788;2023-04-02T02:47:33;103239.16;;;12.42;100.00
25430;BME280;13360;48.152;-1.788;2023-04-02T02:50:05;103245.88;;;12.46;100.00
25430;BME280;13360;48.152;-1.788;2023-04-02T02:52:37;103236.13;;;12.44;100.00
25430;BME280;13360;48.152;-1.788;2023-04-02T02:55:14;103242.19;;;12.41;100.00
25430;BME280;13360;48.152;-1.788;2023-04-02T02:57:47;103251.09;;;12.43;100.00
25430;BME280;13360;48.152;-1.788;2023-04-02T03:00:14;103257.22;;;12.45;100.00
25430;BME280;13360;48.152;-1.788;2023-04-02T03:02:43;103252.09;;;12.37;100.00
25430;BME280;13360;48.152;-1.788;2023-04-02T03:05:09;103259.31;;;12.38;100.00
25430;BME280;13360;48.152;-1.788;2023-04-02T03:07:40;103271.56;;;12.42;100.00
25430;BME280;13360;48.152;-1.788;2023-04-02T03:10:14;103266.03;;;12.42;100.00
25430;BME280;13360;48.152;-1.788;2023-04-02T03:12:48;103259.16;;;12.44;100.00
25430;BME280;13360;48.152;-1.788;2023-04-02T03:15:42;103262.16;;;12.43;100.00
25430;BME280;13360;48.152;-1.788;2023-04-02T03:21:27;103254.00;;;12.36;100.00
25430;BME280;13360;48.152;-1.788;2023-04-02T03:24:24;103244.84;;;12.36;100.00
25430;BME280;13360;48.152;-1.788;2023-04-02T03:26:58;103237.38;;;12.36;100.00
25430;BME280;13360;48.152;-1.788;2023-04-02T03:29:28;103240.50;;;12.40;100.00
25430;BME280;13360;48.152;-1.788;2023-04-02T03:32:07;103224.69;;;12.40;100.00
25430;BME280;13360;48.152;-1.788;2023-04-02T03:34:44;103207.16;;;12.35;100.00
25430;BME280;13360;48.152;-1.788;2023-04-02T03:39:44;103195.72;;;12.31;100.00
25430;BME280;13360;48.152;-1.788;2023-04-02T03:45:08;103198.31;;;12.38;100.00
25430;BME280;13360;48.152;-1.788;2023-04-02T03:52:51;103184.53;;;12.26;100.00
25430;BME280;13360;48.152;-1.788;2023-04-02T03:55:20;103213.88;;;12.39;100.00
25430;BME280;13360;48.152;-1.788;2023-04-02T04:00:48;103226.53;;;12.35;100.00
25430;BME280;13360;48.152;-1.788;2023-04-02T04:03:20;103229.91;;;12.37;100.00
25430;BME280;13360;48.152;-1.788;2023-04-02T04:05:49;103220.00;;;12.41;100.00
25430;BME280;13360;48.152;-1.788;2023-04-02T04:08:19;103216.97;;;12.42;100.00
25430;BME280;13360;48.152;-1.788;2023-04-02T04:10:50;103205.31;;;12.40;100.00
25430;BME280;13360;48.152;-1.788;2023-04-02T04:13:26;103194.97;;;12.36;100.00
25430;BME280;13360;48.152;-1.788;2023-04-02T04:16:00;103196.06;;;12.35;100.00
25430;BME280;13360;48.152;-1.788;2023-04-02T04:21:05;103201.50;;;12.30;100.00
25430;BME280;13360;48.152;-1.788;2023-04-02T04:23:37;103197.06;;;12.29;100.00
25430;BME280;13360;48.152;-1.788;2023-04-02T04:28:43;103201.00;;;12.33;100.00
25430;BME280;13360;48.152;-1.788;2023-04-02T04:31:25;103185.22;;;12.33;100.00
25430;BME280;13360;48.152;-1.788;2023-04-02T04:33:56;103186.06;;;12.34;100.00
25430;BME280;13360;48.152;-1.788;2023-04-02T04:36:34;103172.47;;;12.32;100.00
25430;BME280;13360;48.152;-1.788;2023-04-02T04:39:06;103186.06;;;12.34;100.00
25430;BME280;13360;48.152;-1.788;2023-04-02T04:41:40;103168.25;;;12.30;100.00
25430;BME280;13360;48.152;-1.788;2023-04-02T04:46:47;103176.47;;;12.25;100.00
25430;BME280;13360;48.152;-1.788;2023-04-02T04:54:36;103196.81;;;12.30;100.00
25430;BME280;13360;48.152;-1.788;2023-04-02T04:57:05;103195.00;;;12.24;100.00
25430;BME280;13360;48.152;-1.788;2023-04-02T04:59:41;103198.13;;;12.28;100.00
25430;BME280;13360;48.152;-1.788;2023-04-02T05:02:16;103206.56;;;12.33;100.00
25430;BME280;13360;48.152;-1.788;2023-04-02T05:04:47;103206.56;;;12.33;100.00
25430;BME280;13360;48.152;-1.788;2023-04-02T05:07:16;103195.47;;;12.33;100.00
25430;BME280;13360;48.152;-1.788;2023-04-02T05:09:54;103183.78;;;12.31;100.00
25430;BME280;13360;48.152;-1.788;2023-04-02T05:14:53;103180.31;;;12.24;100.00
25430;BME280;13360;48.152;-1.788;2023-04-02T05:17:31;103184.53;;;12.26;100.00
25430;BME280;13360;48.152;-1.788;2023-04-02T05:20:05;103188.97;;;12.27;100.00
25430;BME280;13360;48.152;-1.788;2023-04-02T05:27:55;103190.44;;;12.30;100.00
25430;BME280;13360;48.152;-1.788;2023-04-02T05:33:01;103182.34;;;12.28;100.00
25430;BME280;13360;48.152;-1.788;2023-04-02T05:35:32;103192.38;;;12.29;100.00
25430;BME280;13360;48.152;-1.788;2023-04-02T05:38:00;103194.28;;;12.29;100.00
25430;BME280;13360;48.152;-1.788;2023-04-02T05:40:40;103180.66;;;12.27;100.00
25430;BME280;13360;48.152;-1.788;2023-04-02T05:43:09;103182.00;;;12.25;100.00
25430;BME280;13360;48.152;-1.788;2023-04-02T05:45:40;103187.19;;;12.21;100.00
25430;BME280;13360;48.152;-1.788;2023-04-02T05:48:19;103193.59;;;12.21;100.00
25430;BME280;13360;48.152;-1.788;2023-04-02T05:50:53;103190.22;;;12.19;100.00
25430;BME280;13360;48.152;-1.788;2023-04-02T05:53:26;103194.69;;;12.20;100.00
25430;BME280;13360;48.152;-1.788;2023-04-02T05:58:33;103188.03;;;12.21;100.00
25430;BME280;13360;48.152;-1.788;2023-04-02T06:01:34;103190.31;;;12.25;100.00
25430;BME280;13360;48.152;-1.788;2023-04-02T06:06:46;103178.06;;;12.20;100.00
25430;BME280;13360;48.152;-1.788;2023-04-02T06:09:19;103160.25;;;12.16;100.00
25430;BME280;13360;48.152;-1.788;2023-04-02T06:11:59;103160.34;;;12.21;100.00
25430;BME280;13360;48.152;-1.788;2023-04-02T06:14:27;103140.59;;;12.18;100.00
25430;BME280;13360;48.152;-1.788;2023-04-02T06:16:52;103142.63;;;12.23;100.00
25430;BME280;13360;48.152;-1.788;2023-04-02T06:19:22;103133.53;;;12.27;100.00
25430;BME280;13360;48.152;-1.788;2023-04-02T06:21:51;103121.38;;;12.28;100.00
25430;BME280;13360;48.152;-1.788;2023-04-02T06:24:21;103112.00;;;12.29;100.00
25430;BME280;13360;48.152;-1.788;2023-04-02T06:26:55;103118.38;;;12.30;100.00
25430;BME280;13360;48.152;-1.788;2023-04-02T06:29:30;103091.75;;;12.29;100.00
25430;BME280;13360;48.152;-1.788;2023-04-02T06:32:02;103092.34;;;12.31;100.00
25430;BME280;13360;48.152;-1.788;2023-04-02T06:34:30;103069.91;;;12.32;100.00
25430;BME280;13360;48.152;-1.788;2023-04-02T06:37:02;103057.88;;;12.27;100.00
25430;BME280;13360;48.152;-1.788;2023-04-02T06:39:29;103030.78;;;12.29;100.00
25430;BME280;13360;48.152;-1.788;2023-04-02T06:42:04;103017.41;;;12.26;100.00
25430;BME280;13360;48.152;-1.788;2023-04-02T06:44:34;103008.63;;;12.29;100.00
25430;BME280;13360;48.152;-1.788;2023-04-02T06:47:34;102988.97;;;12.30;100.00
25430;BME280;13360;48.152;-1.788;2023-04-02T06:52:47;102958.50;;;12.30;100.00
25430;BME280;13360;48.152;-1.788;2023-04-02T06:55:36;102920.53;;;12.31;100.00
25430;BME280;13360;48.152;-1.788;2023-04-02T06:58:05;102902.88;;;12.37;100.00
25430;BME280;13360;48.152;-1.788;2023-04-02T07:00:44;102887.34;;;12.36;100.00
25430;BME280;13360;48.152;-1.788;2023-04-02T07:03:23;102882.69;;;12.41;100.00
25430;BME280;13360;48.152;-1.788;2023-04-02T07:05:49;102875.84;;;12.49;100.00
25430;BME280;13360;48.152;-1.788;2023-04-02T07:08:15;102872.06;;;12.55;100.00
25430;BME280;13360;48.152;-1.788;2023-04-02T07:10:40;102862.34;;;12.52;100.00
25430;BME280;13360;48.152;-1.788;2023-04-02T07:13:07;102860.72;;;12.57;100.00
25430;BME280;13360;48.152;-1.788;2023-04-02T07:15:33;102857.38;;;12.55;100.00
25430;BME280;13360;48.152;-1.788;2023-04-02T07:17:58;102851.41;;;12.46;100.00
25430;BME280;13360;48.152;-1.788;2023-04-02T07:20:34;102856.22;;;12.50;100.00
25430;BME280;13360;48.152;-1.788;2023-04-02T07:23:03;102857.09;;;12.56;100.00
25430;BME280;13360;48.152;-1.788;2023-04-02T07:25:28;102865.41;;;12.56;100.00
25430;BME280;13360;48.152;-1.788;2023-04-02T07:27:55;102859.81;;;12.51;100.00
25430;BME280;13360;48.152;-1.788;2023-04-02T07:30:20;102869.81;;;12.52;100.00
25430;BME280;13360;48.152;-1.788;2023-04-02T07:32:46;102880.38;;;12.55;100.00
25430;BME280;13360;48.152;-1.788;2023-04-02T07:35:11;102882.38;;;12.60;100.00
25430;BME280;13360;48.152;-1.788;2023-04-02T07:37:37;102886.81;;;12.61;100.00
25430;BME280;13360;48.152;-1.788;2023-04-02T07:40:19;102879.91;;;12.63;100.00
25430;BME280;13360;48.152;-1.788;2023-04-02T07:42:47;102891.91;;;12.69;100.00
25430;BME280;13360;48.152;-1.788;2023-04-02T07:45:12;102866.06;;;12.63;100.00
25430;BME280;13360;48.152;-1.788;2023-04-02T07:47:38;102871.16;;;12.71;100.00
25430;BME280;13360;48.152;-1.788;2023-04-02T07:50:04;102867.91;;;12.79;100.00
25430;BME280;13360;48.152;-1.788;2023-04-02T07:52:30;102880.59;;;12.97;100.00
25430;BME280;13360;48.152;-1.788;2023-04-02T07:54:55;102896.31;;;13.13;100.00
25430;BME280;13360;48.152;-1.788;2023-04-02T07:57:21;102896.59;;;13.39;100.00
25430;BME280;13360;48.152;-1.788;2023-04-02T07:59:46;102884.25;;;13.57;100.00
25430;BME280;13360;48.152;-1.788;2023-04-02T08:02:19;102866.22;;;13.59;100.00
25430;BME280;13360;48.152;-1.788;2023-04-02T08:04:46;102852.59;;;13.58;100.00
25430;BME280;13360;48.152;-1.788;2023-04-02T08:07:12;102820.81;;;13.43;100.00
25430;BME280;13360;48.152;-1.788;2023-04-02T08:09:37;102835.97;;;13.63;100.00
25430;BME280;13360;48.152;-1.788;2023-04-02T08:12:02;102818.25;;;13.74;100.00
25430;BME280;13360;48.152;-1.788;2023-04-02T08:14:28;102819.34;;;13.68;100.00
25430;BME280;13360;48.152;-1.788;2023-04-02T08:16:54;102764.75;;;13.41;100.00
25430;BME280;13360;48.152;-1.788;2023-04-02T08:19:20;102738.34;;;13.39;100.00
25430;BME280;13360;48.152;-1.788;2023-04-02T08:21:45;102734.19;;;13.36;100.00
25430;BME280;13360;48.152;-1.788;2023-04-02T08:24:14;102719.41;;;13.31;100.00
25430;BME280;13360;48.152;-1.788;2023-04-02T08:26:43;102688.84;;;13.26;100.00
25430;BME280;13360;48.152;-1.788;2023-04-02T08:29:09;102685.25;;;13.25;100.00
25430;BME280;13360;48.152;-1.788;2023-04-02T08:31:34;102699.47;;;13.34;100.00
25430;BME280;13360;48.152;-1.788;2023-04-02T08:33:59;102709.50;;;13.40;100.00
25430;BME280;13360;48.152;-1.788;2023-04-02T08:36:28;102708.38;;;13.36;100.00
25430;BME280;13360;48.152;-1.788;2023-04-02T08:38:55;102700.81;;;13.31;100.00
25430;BME280;13360;48.152;-1.788;2023-04-02T08:41:22;102716.41;;;13.37;100.00
25430;BME280;13360;48.152;-1.788;2023-04-02T08:44:08;102703.59;;;13.31;100.00
25430;BME280;13360;48.152;-1.788;2023-04-02T08:46:55;102704.81;;;13.46;100.00
25430;BME280;13360;48.152;-1.788;2023-04-02T08:51:55;102695.72;;;13.55;100.00
25430;BME280;13360;48.152;-1.788;2023-04-02T08:57:22;102671.81;;;13.54;100.00
25430;BME280;13360;48.152;-1.788;2023-04-02T08:59:58;102658.53;;;13.61;100.00
25430;BME280;13360;48.152;-1.788;2023-04-02T09:02:36;102667.72;;;13.72;100.00
25430;BME280;13360;48.152;-1.788;2023-04-02T09:05:06;102672.75;;;13.75;100.00
25430;BME280;13360;48.152;-1.788;2023-04-02T09:07:32;102666.63;;;13.73;100.00
25430;BME280;13360;48.152;-1.788;2023-04-02T09:09:58;102662.69;;;13.64;100.00
25430;BME280;13360;48.152;-1.788;2023-04-02T09:12:29;102662.16;;;13.67;100.00
25430;BME280;13360;48.152;-1.788;2023-04-02T09:15:05;102655.19;;;13.64;100.00
25430;BME280;13360;48.152;-1.788;2023-04-02T09:17:39;102648.84;;;13.74;100.00
25430;BME280;13360;48.152;-1.788;2023-04-02T09:20:17;102665.25;;;13.76;100.00
25430;BME280;13360;48.152;-1.788;2023-04-02T09:22:48;102631.03;;;13.60;100.00
25430;BME280;13360;48.152;-1.788;2023-04-02T09:25:26;102619.91;;;13.55;100.00
25430;BME280;13360;48.152;-1.788;2023-04-02T09:27:55;102614.38;;;13.60;100.00
25430;BME280;13360;48.152;-1.788;2023-04-02T09:32:57;102573.22;;;13.47;100.00
25430;BME280;13360;48.152;-1.788;2023-04-02T09:35:32;102584.97;;;13.74;100.00
25430;BME280;13360;48.152;-1.788;2023-04-02T09:40:44;102568.66;;;13.98;100.00
25430;BME280;13360;48.152;-1.788;2023-04-02T09:43:16;102542.81;;;13.97;100.00
25430;BME280;13360;48.152;-1.788;2023-04-02T09:45:43;102521.72;;;13.96;100.00
25430;BME280;13360;48.152;-1.788;2023-04-02T09:48:28;102503.63;;;13.89;100.00
25430;BME280;13360;48.152;-1.788;2023-04-02T09:53:39;102519.47;;;13.78;100.00
25430;BME280;13360;48.152;-1.788;2023-04-02T09:56:35;102512.47;;;13.65;100.00
25430;BME280;13360;48.152;-1.788;2023-04-02T09:59:15;102503.59;;;13.63;100.00
25430;BME280;13360;48.152;-1.788;2023-04-02T10:01:44;102518.84;;;13.61;100.00
25430;BME280;13360;48.152;-1.788;2023-04-02T10:04:43;102500.81;;;13.63;100.00
25430;BME280;13360;48.152;-1.788;2023-04-02T10:10:05;102554.44;;;13.79;100.00
25430;BME280;13360;48.152;-1.788;2023-04-02T10:12:41;102531.63;;;13.62;100.00
25430;BME280;13360;48.152;-1.788;2023-04-02T10:15:14;102494.66;;;13.46;100.00
25430;BME280;13360;48.152;-1.788;2023-04-02T10:17:41;102486.31;;;13.36;100.00
25430;BME280;13360;48.152;-1.788;2023-04-02T10:20:17;102479.09;;;13.35;100.00
25430;BME280;13360;48.152;-1.788;2023-04-02T10:22:45;102464.97;;;13.41;100.00
25430;BME280;13360;48.152;-1.788;2023-04-02T10:25:15;102479.44;;;13.54;100.00
25430;BME280;13360;48.152;-1.788;2023-04-02T10:27:56;102484.44;;;13.57;100.00
25430;BME280;13360;48.152;-1.788;2023-04-02T10:30:32;102496.66;;;13.71;100.00
25430;BME280;13360;48.152;-1.788;2023-04-02T10:33:04;102543.34;;;13.79;100.00
25430;BME280;13360;48.152;-1.788;2023-04-02T10:35:59;102514.97;;;13.67;100.00
25430;BME280;13360;48.152;-1.788;2023-04-02T10:41:10;102531.16;;;13.95;100.00
25430;BME280;13360;48.152;-1.788;2023-04-02T10:46:29;102531.97;;;14.06;100.00
25430;BME280;13360;48.152;-1.788;2023-04-02T10:51:36;102521.97;;;13.80;100.00
25430;BME280;13360;48.152;-1.788;2023-04-02T10:56:34;102534.41;;;13.72;100.00
25430;BME280;13360;48.152;-1.788;2023-04-02T11:01:36;102531.69;;;13.82;100.00
25430;BME280;13360;48.152;-1.788;2023-04-02T11:04:15;102564.72;;;13.89;100.00
25430;BME280;13360;48.152;-1.788;2023-04-02T11:06:46;102558.91;;;13.85;100.00
25430;BME280;13360;48.152;-1.788;2023-04-02T11:09:20;102554.47;;;13.89;100.00
25430;BME280;13360;48.152;-1.788;2023-04-02T11:11:50;102553.63;;;13.79;100.00
25430;BME280;13360;48.152;-1.788;2023-04-02T11:14:24;102562.22;;;13.77;100.00
25430;BME280;13360;48.152;-1.788;2023-04-02T11:16:51;102570.56;;;13.77;100.00
25430;BME280;13360;48.152;-1.788;2023-04-02T11:26:48;102634.97;;;13.74;100.00
25430;BME280;13360;48.152;-1.788;2023-04-02T11:29:27;102617.78;;;13.77;100.00
25430;BME280;13360;48.152;-1.788;2023-04-02T11:32:39;102604.72;;;13.78;100.00
25430;BME280;13360;48.152;-1.788;2023-04-02T11:38:00;102590.84;;;13.78;100.00
25430;BME280;13360;48.152;-1.788;2023-04-02T11:40:53;102620.06;;;13.95;100.00
25430;BME280;13360;48.152;-1.788;2023-04-02T11:48:53;102540.03;;;13.97;100.00
25430;BME280;13360;48.152;-1.788;2023-04-02T11:53:45;102528.63;;;14.14;100.00
25430;BME280;13360;48.152;-1.788;2023-04-02T11:56:33;102536.44;;;14.22;100.00
25430;BME280;13360;48.152;-1.788;2023-04-02T12:07:06;102498.91;;;14.50;100.00
25430;BME280;13360;48.152;-1.788;2023-04-02T12:09:45;102497.22;;;14.54;100.00
25430;BME280;13360;48.152;-1.788;2023-04-02T12:12:25;102480.53;;;14.54;100.00
25430;BME280;13360;48.152;-1.788;2023-04-02T12:14:53;102460.00;;;14.45;100.00
25430;BME280;13360;48.152;-1.788;2023-04-02T12:17:34;102475.28;;;14.58;100.00
25430;BME280;13360;48.152;-1.788;2023-04-02T12:22:39;102442.72;;;14.53;100.00
25430;BME280;13360;48.152;-1.788;2023-04-02T12:27:47;102452.75;;;14.34;100.00
25430;BME280;13360;48.152;-1.788;2023-04-02T12:30:27;102458.31;;;14.34;100.00
25430;BME280;13360;48.152;-1.788;2023-04-02T12:32:52;102446.66;;;14.27;100.00
25430;BME280;13360;48.152;-1.788;2023-04-02T12:35:31;102449.13;;;14.33;100.00
25430;BME280;13360;48.152;-1.788;2023-04-02T12:37:58;102447.78;;;14.26;100.00
25430;BME280;13360;48.152;-1.788;2023-04-02T12:40:24;102451.38;;;14.11;100.00
25430;BME280;13360;48.152;-1.788;2023-04-02T12:42:50;102455.00;;;14.07;100.00
25430;BME280;13360;48.152;-1.788;2023-04-02T12:45:30;102478.63;;;14.14;100.00
25430;BME280;13360;48.152;-1.788;2023-04-02T12:48:01;102459.44;;;14.13;100.00
25430;BME280;13360;48.152;-1.788;2023-04-02T12:50:28;102443.88;;;14.12;100.00
25430;BME280;13360;48.152;-1.788;2023-04-02T12:52:54;102489.75;;;14.24;100.00
25430;BME280;13360;48.152;-1.788;2023-04-02T12:55:24;102501.69;;;14.40;100.00
25430;BME280;13360;48.152;-1.788;2023-04-02T12:57:57;102503.34;;;14.56;100.00
25430;BME280;13360;48.152;-1.788;2023-04-02T13:02:59;102553.09;;;14.68;100.00
25430;BME280;13360;48.152;-1.788;2023-04-02T13:05:48;102515.88;;;14.44;100.00
25430;BME280;13360;48.152;-1.788;2023-04-02T13:08:27;102493.91;;;14.32;100.00
25430;BME280;13360;48.152;-1.788;2023-04-02T13:11:03;102465.84;;;14.13;100.00
25430;BME280;13360;48.152;-1.788;2023-04-02T13:13:39;102478.06;;;14.07;100.00
25430;BME280;13360;48.152;-1.788;2023-04-02T13:18:36;102480.84;;;13.82;100.00
25430;BME280;13360;48.152;-1.788;2023-04-02T13:21:24;102510.00;;;13.84;100.00
25430;BME280;13360;48.152;-1.788;2023-04-02T13:23:53;102513.63;;;13.85;100.00
25430;BME280;13360;48.152;-1.788;2023-04-02T13:26:24;102524.47;;;13.86;100.00
25430;BME280;13360;48.152;-1.788;2023-04-02T13:29:19;102539.47;;;14.00;100.00
25430;BME280;13360;48.152;-1.788;2023-04-02T13:31:46;102540.06;;;14.18;100.00
25430;BME280;13360;48.152;-1.788;2023-04-02T13:34:12;102527.00;;;14.23;100.00
25430;BME280;13360;48.152;-1.788;2023-04-02T13:36:37;102510.88;;;14.25;100.00
25430;BME280;13360;48.152;-1.788;2023-04-02T13:39:03;102530.31;;;14.41;100.00
25430;BME280;13360;48.152;-1.788;2023-04-02T13:41:31;102533.66;;;14.38;100.00
25430;BME280;13360;48.152;-1.788;2023-04-02T13:43:59;102548.41;;;14.48;100.00
25430;BME280;13360;48.152;-1.788;2023-04-02T13:46:31;102550.91;;;14.55;100.00
25430;BME280;13360;48.152;-1.788;2023-04-02T13:48:57;102560.06;;;14.71;100.00
25430;BME280;13360;48.152;-1.788;2023-04-02T13:51:28;102559.50;;;14.69;100.00
25430;BME280;13360;48.152;-1.788;2023-04-02T13:53:56;102549.50;;;14.57;100.00
25430;BME280;13360;48.152;-1.788;2023-04-02T13:56:22;102514.44;;;14.36;100.00
25430;BME280;13360;48.152;-1.788;2023-04-02T13:58:49;102472.25;;;14.09;100.00
25430;BME280;13360;48.152;-1.788;2023-04-02T14:01:15;102465.28;;;14.06;100.00
25430;BME280;13360;48.152;-1.788;2023-04-02T14:03:41;102503.38;;;14.21;100.00
25430;BME280;13360;48.152;-1.788;2023-04-02T14:06:28;102486.69;;;14.06;100.00
25430;BME280;13360;48.152;-1.788;2023-04-02T14:14:10;102515.03;;;14.28;100.00
25430;BME280;13360;48.152;-1.788;2023-04-02T14:30:46;102509.47;;;14.33;100.00
25430;BME280;13360;48.152;-1.788;2023-04-02T14:36:28;102521.72;;;14.47;100.00
25430;BME280;13360;48.152;-1.788;2023-04-02T14:39:27;102545.91;;;14.52;100.00
25430;BME280;13360;48.152;-1.788;2023-04-02T14:48:01;102530.31;;;14.25;100.00
25430;BME280;13360;48.152;-1.788;2023-04-02T14:50:32;102538.38;;;14.37;100.00
25430;BME280;13360;48.152;-1.788;2023-04-02T14:53:07;102514.75;;;14.40;100.00
25430;BME280;13360;48.152;-1.788;2023-04-02T14:55:43;102492.22;;;14.41;100.00
25430;BME280;13360;48.152;-1.788;2023-04-02T14:58:24;102488.59;;;14.35;100.00
25430;BME280;13360;48.152;-1.788;2023-04-02T15:01:00;102506.13;;;14.31;100.00
25430;BME280;13360;48.152;-1.788;2023-04-02T15:03:35;102505.59;;;14.24;100.00
25430;BME280;13360;48.152;-1.788;2023-04-02T15:06:05;102504.47;;;14.20;100.00
25430;BME280;13360;48.152;-1.788;2023-04-02T15:08:38;102534.50;;;14.18;100.00
25430;BME280;13360;48.152;-1.788;2023-04-02T15:11:37;102536.16;;;14.09;100.00
25430;BME280;13360;48.152;-1.788;2023-04-02T15:14:11;102559.78;;;14.16;100.00
25430;BME280;13360;48.152;-1.788;2023-04-02T15:16:40;102564.22;;;14.07;100.00
25430;BME280;13360;48.152;-1.788;2023-04-02T15:19:11;102570.91;;;14.16;100.00
25430;BME280;13360;48.152;-1.788;2023-04-02T15:41:06;102548.94;;;14.10;100.00
25430;BME280;13360;48.152;-1.788;2023-04-02T15:43:43;102525.31;;;13.97;100.00
25430;BME280;13360;48.152;-1.788;2023-04-02T15:46:20;102538.38;;;14.07;100.00
25430;BME280;13360;48.152;-1.788;2023-04-02T15:49:09;102530.59;;;13.98;100.00
25430;BME280;13360;48.152;-1.788;2023-04-02T15:54:46;102539.44;;;13.80;100.00
25430;BME280;13360;48.152;-1.788;2023-04-02T16:00:25;102578.38;;;14.00;100.00
25430;BME280;13360;48.152;-1.788;2023-04-02T16:10:48;102596.72;;;14.12;100.00
25430;BME280;13360;48.152;-1.788;2023-04-02T16:13:30;102577.28;;;14.01;100.00
25430;BME280;13360;48.152;-1.788;2023-04-02T16:18:43;102526.69;;;13.84;100.00
25430;BME280;13360;48.152;-1.788;2023-04-02T16:21:15;102536.69;;;13.90;100.00
25430;BME280;13360;48.152;-1.788;2023-04-02T16:23:43;102532.22;;;13.89;100.00
25430;BME280;13360;48.152;-1.788;2023-04-02T16:29:18;102513.34;;;13.86;100.00
25430;BME280;13360;48.152;-1.788;2023-04-02T16:34:49;102488.34;;;13.86;100.00
25430;BME280;13360;48.152;-1.788;2023-04-02T16:37:34;102489.47;;;13.75;100.00
25430;BME280;13360;48.152;-1.788;2023-04-02T16:43:12;102460.53;;;13.51;100.00